Time;durP1;ratioP1;P1;durP2;ratioP2;P2;SDS_P1;SDS_P2;PMS_P1;PMS_P2;Temp;Humidity;BMP_temperature;BMP_pressure;BME280_temperature;BME280_humidity;BME280_pressure;Samples;Min_cycle;Max_cycle;Signal;HPM_P1;HPM_P2
2024/03/31 00:00:15;;;;;;;38.50;22.60;;;;;;;11.04;72.09;99831.31;109164;1255;138557;-67
2024/03/31 00:03:02;;;;;;;36.60;21.90;;;;;;;11.00;72.20;99835.67;109151;1253;75686;-67
2024/03/31 00:05:29;;;;;;;34.60;22.50;;;;;;;10.98;72.20;99830.92;109207;1254;139217;-67
2024/03/31 00:07:55;;;;;;;34.20;22.20;;;;;;;10.95;72.23;99834.58;109194;1254;72750;-67
2024/03/31 00:10:22;;;;;;;34.60;22.30;;;;;;;10.91;72.26;99830.68;109219;1254;59741;-67
2024/03/31 00:12:48;;;;;;;36.10;21.80;;;;;;;10.87;72.38;99829.44;109174;1253;138833;-67
2024/03/31 00:15:15;;;;;;;35.20;21.10;;;;;;;10.84;72.55;99828.87;109281;1258;72778;-67
2024/03/31 00:17:42;;;;;;;34.00;21.60;;;;;;;10.83;72.62;99824.29;106329;1258;137815;-66
2024/03/31 00:20:09;;;;;;;35.50;20.30;;;;;;;10.80;72.72;99829.02;105320;1254;73049;-66
2024/03/31 00:22:35;;;;;;;31.40;20.50;;;;;;;10.79;72.84;99824.08;105136;1254;138268;-67
2024/03/31 00:25:02;;;;;;;31.30;19.90;;;;;;;10.78;72.83;99820.04;105078;1259;61257;-67
2024/03/31 00:27:29;;;;;;;32.50;20.90;;;;;;;10.75;73.00;99822.11;109177;1257;75222;-67
2024/03/31 00:29:56;;;;;;;32.30;19.70;;;;;;;10.71;73.06;99818.74;109182;1254;138600;-68
2024/03/31 00:32:23;;;;;;;35.90;20.10;;;;;;;10.67;73.19;99813.80;109276;1253;74154;-68
2024/03/31 00:34:50;;;;;;;31.10;19.20;;;;;;;10.66;73.32;99810.82;105560;1259;139128;-67
2024/03/31 00:37:17;;;;;;;30.40;19.70;;;;;;;10.66;73.43;99810.62;105047;1257;61139;-66
2024/03/31 00:39:44;;;;;;;31.90;19.20;;;;;;;10.66;73.56;99812.38;108997;1254;73765;-67
2024/03/31 00:42:10;;;;;;;30.90;18.50;;;;;;;10.66;73.67;99813.80;108009;1257;138677;-67
2024/03/31 00:44:37;;;;;;;29.90;19.10;;;;;;;10.66;73.68;99811.17;104910;1254;73560;-67
2024/03/31 00:47:03;;;;;;;32.90;19.70;;;;;;;10.66;73.67;99814.48;105014;1259;139428;-67
2024/03/31 00:49:30;;;;;;;30.90;20.90;;;;;;;10.64;73.72;99814.98;105096;1257;61202;-67
2024/03/31 00:51:57;;;;;;;33.20;21.00;;;;;;;10.62;73.76;99810.94;105062;1257;75452;-67
2024/03/31 00:54:23;;;;;;;27.90;19.00;;;;;;;10.59;73.73;99805.13;104929;1259;138538;-67
2024/03/31 00:56:51;;;;;;;35.80;21.20;;;;;;;10.54;73.79;99797.89;105098;1260;73717;-67
2024/03/31 00:59:18;;;;;;;33.30;20.80;;;;;;;10.51;73.98;99796.11;105096;1254;137999;-67
2024/03/31 01:01:44;;;;;;;32.60;20.50;;;;;;;10.50;74.14;99796.97;105131;1259;61496;-66
2024/03/31 01:04:11;;;;;;;36.20;21.30;;;;;;;10.48;74.06;99795.91;105008;1262;74543;-67
2024/03/31 01:06:37;;;;;;;30.90;21.00;;;;;;;10.43;74.03;99794.09;104924;1259;138085;-67
2024/03/31 01:09:04;;;;;;;33.20;20.60;;;;;;;10.40;74.19;99794.91;105223;1259;73292;-67
2024/03/31 01:11:31;;;;;;;33.20;20.80;;;;;;;10.37;74.45;99789.82;104984;1262;138745;-67
2024/03/31 01:13:57;;;;;;;36.50;21.70;;;;;;;10.35;74.51;99783.66;105246;1259;61432;-67
2024/03/31 01:16:24;;;;;;;36.30;21.60;;;;;;;10.34;74.56;99781.38;105083;1254;74773;-68
2024/03/31 01:18:51;;;;;;;35.80;20.70;;;;;;;10.31;74.44;99786.95;105062;1254;138412;-67
2024/03/31 01:21:17;;;;;;;36.70;21.00;;;;;;;10.27;74.66;99786.69;105189;1257;73296;-67
2024/03/31 01:23:44;;;;;;;42.60;24.10;;;;;;;10.25;74.63;99791.23;105005;1259;138845;-68
2024/03/31 01:26:11;;;;;;;40.90;23.30;;;;;;;10.22;74.78;99789.27;105066;1259;61241;-68
2024/03/31 01:28:37;;;;;;;44.70;24.10;;;;;;;10.20;74.77;99786.28;104873;1254;138690;-66
2024/03/31 01:31:04;;;;;;;45.10;28.00;;;;;;;10.18;74.77;99792.55;105188;1259;61288;-67
2024/03/31 01:33:31;;;;;;;49.00;29.20;;;;;;;10.17;74.89;99797.63;105094;1260;73115;-67
2024/03/31 01:36:01;;;;;;;50.60;28.60;;;;;;;10.16;74.86;99800.25;105085;1260;139119;-67
2024/03/31 01:38:27;;;;;;;45.10;30.70;;;;;;;10.12;74.75;99800.91;109316;1254;59216;-68
2024/03/31 01:40:54;;;;;;;63.70;32.20;;;;;;;10.06;74.64;99797.69;109215;1255;138995;-67
2024/03/31 01:43:21;;;;;;;56.60;31.40;;;;;;;10.03;74.68;99795.02;109078;1255;66312;-67
2024/03/31 01:45:48;;;;;;;56.40;30.80;;;;;;;10.00;74.67;99793.23;109231;1255;72633;-68
2024/03/31 01:48:14;;;;;;;54.60;30.50;;;;;;;9.97;74.82;99794.77;109169;1254;138540;-68
2024/03/31 01:50:41;;;;;;;57.30;31.40;;;;;;;9.97;74.91;99792.33;109360;1254;59112;-68
2024/03/31 01:53:07;;;;;;;52.10;29.60;;;;;;;9.97;74.85;99789.52;108897;1257;138781;-67
2024/03/31 01:55:34;;;;;;;49.00;28.50;;;;;;;9.98;74.99;99784.61;105138;1260;66067;-67
2024/03/31 01:58:01;;;;;;;48.30;26.90;;;;;;;9.98;75.09;99781.11;105022;1257;73663;-67
2024/03/31 02:00:28;;;;;;;45.30;25.00;;;;;;;9.97;75.04;99776.89;104973;1255;137818;-67
2024/03/31 02:02:54;;;;;;;41.30;25.00;;;;;;;9.96;75.20;99773.21;104986;1259;61417;-67
2024/03/31 02:05:22;;;;;;;43.00;25.00;;;;;;;9.96;75.26;99772.34;105086;1254;137757;-67
2024/03/31 02:07:49;;;;;;;42.60;24.20;;;;;;;9.93;75.33;99773.52;105249;1254;66866;-67
2024/03/31 02:10:16;;;;;;;33.00;23.20;;;;;;;9.90;75.36;99768.06;109311;1254;72389;-67
2024/03/31 02:12:43;;;;;;;38.50;23.20;;;;;;;9.89;75.48;99767.52;109239;1254;138457;-68
2024/03/31 02:15:09;;;;;;;33.70;21.20;;;;;;;9.89;75.54;99766.48;109391;1253;59011;-68
2024/03/31 02:17:36;;;;;;;34.50;21.10;;;;;;;9.88;75.51;99767.33;108993;1254;138552;-67
2024/03/31 02:20:05;;;;;;;33.70;20.20;;;;;;;9.87;75.67;99765.40;106830;1259;59602;-67
2024/03/31 02:22:31;;;;;;;34.00;20.40;;;;;;;9.86;75.65;99773.27;109218;1254;139457;-67
2024/03/31 02:24:58;;;;;;;30.50;19.60;;;;;;;9.86;75.80;99773.44;109337;1254;59390;-68
2024/03/31 02:27:25;;;;;;;34.20;20.30;;;;;;;9.85;75.82;99772.90;109344;1255;59052;-67
2024/03/31 02:29:52;;;;;;;36.90;21.50;;;;;;;9.83;75.83;99767.98;109181;1253;138915;-67
2024/03/31 02:32:18;;;;;;;35.10;21.60;;;;;;;9.82;75.94;99766.73;109352;1254;65052;-67
2024/03/31 02:34:45;;;;;;;39.20;21.60;;;;;;;9.81;76.01;99768.83;109214;1254;139758;-68
2024/03/31 02:37:11;;;;;;;36.90;20.90;;;;;;;9.82;76.09;99776.89;109316;1256;59459;-67
2024/03/31 02:39:38;;;;;;;38.70;19.50;;;;;;;9.82;76.30;99779.17;109372;1253;59229;-68
2024/03/31 02:42:05;;;;;;;29.90;19.00;;;;;;;9.83;76.29;99783.55;109283;1253;139288;-67
2024/03/31 02:44:32;;;;;;;36.00;19.00;;;;;;;9.83;76.33;99781.98;109031;1254;67434;-68
2024/03/31 02:46:59;;;;;;;30.70;18.40;;;;;;;9.84;76.36;99780.60;107647;1258;138793;-67
2024/03/31 02:49:25;;;;;;;29.40;17.60;;;;;;;9.84;76.40;99786.73;105102;1254;61264;-66
2024/03/31 02:51:52;;;;;;;31.70;16.90;;;;;;;9.82;76.36;99789.33;105171;1256;61225;-68
2024/03/31 02:54:19;;;;;;;35.30;18.30;;;;;;;9.80;76.51;99793.17;104930;1261;138938;-68
2024/03/31 02:56:45;;;;;;;37.60;17.60;;;;;;;9.81;76.52;99792.64;105220;1257;67159;-68
2024/03/31 02:59:12;;;;;;;30.00;18.10;;;;;;;9.80;76.60;99787.71;105008;1258;138546;-68
2024/03/31 03:01:38;;;;;;;32.30;18.40;;;;;;;9.79;76.61;99786.84;105188;1257;61340;-67
2024/03/31 03:04:05;;;;;;;40.40;19.50;;;;;;;9.77;76.53;99784.54;105190;1255;65812;-67
2024/03/31 03:06:32;;;;;;;28.10;17.80;;;;;;;9.74;76.65;99781.86;104973;1260;138356;-66
2024/03/31 03:08:58;;;;;;;38.10;19.10;;;;;;;9.71;76.70;99776.06;105130;1257;66988;-67
2024/03/31 03:11:25;;;;;;;34.00;17.70;;;;;;;9.69;76.76;99778.65;105036;1254;138345;-66
2024/03/31 03:13:51;;;;;;;34.60;18.90;;;;;;;9.65;76.94;99773.88;105123;1260;61289;-66
2024/03/31 03:16:19;;;;;;;30.40;18.30;;;;;;;9.65;76.98;99775.64;105123;1258;61309;-66
2024/03/31 03:18:46;;;;;;;33.80;19.10;;;;;;;9.63;77.08;99774.20;105119;1254;138288;-67
2024/03/31 03:21:12;;;;;;;35.30;18.80;;;;;;;9.60;76.98;99774.15;105183;1259;66231;-66
2024/03/31 03:23:39;;;;;;;44.10;18.90;;;;;;;9.57;77.07;99771.32;104946;1257;138519;-67
2024/03/31 03:26:05;;;;;;;38.90;18.00;;;;;;;9.53;77.05;99773.71;105112;1254;61257;-66
2024/03/31 03:28:32;;;;;;;42.90;19.00;;;;;;;9.49;77.22;99767.20;105068;1257;138514;-66
2024/03/31 03:31:01;;;;;;;35.90;18.10;;;;;;;9.45;77.15;99766.24;105107;1259;75280;-66
2024/03/31 03:33:28;;;;;;;38.70;19.20;;;;;;;9.40;77.17;99767.75;109364;1254;66243;-67
2024/03/31 03:35:54;;;;;;;38.50;18.60;;;;;;;9.35;77.21;99768.23;106577;1253;137823;-66
2024/03/31 03:38:21;;;;;;;35.30;18.90;;;;;;;9.32;77.36;99769.92;105163;1259;61369;-66
2024/03/31 03:40:48;;;;;;;37.80;18.90;;;;;;;9.26;77.44;99769.67;105077;1254;138867;-66
2024/03/31 03:43:14;;;;;;;35.90;19.20;;;;;;;9.20;77.54;99771.85;105112;1256;61247;-67
2024/03/31 03:45:41;;;;;;;34.50;18.20;;;;;;;9.12;77.61;99773.30;105624;1259;65612;-67
2024/03/31 03:48:08;;;;;;;34.00;17.60;;;;;;;9.05;77.87;99773.73;104923;1260;138805;-67
2024/03/31 03:50:36;;;;;;;34.90;18.60;;;;;;;9.02;78.03;99768.61;105130;1257;61315;-67
2024/03/31 03:53:04;;;;;;;35.80;18.10;;;;;;;9.00;78.12;99763.51;104870;1260;139816;-67
2024/03/31 03:55:31;;;;;;;34.30;17.40;;;;;;;8.99;78.19;99760.67;105226;1258;75582;-67
2024/03/31 03:57:58;;;;;;;38.70;18.20;;;;;;;8.98;78.42;99756.46;105073;1257;66732;-67
2024/03/31 04:00:24;;;;;;;31.10;17.20;;;;;;;9.00;78.57;99757.20;104973;1254;138950;-67
2024/03/31 04:02:51;;;;;;;36.00;18.80;;;;;;;8.98;78.40;99756.64;105149;1259;61418;-67
2024/03/31 04:05:18;;;;;;;38.80;18.50;;;;;;;8.94;78.38;99750.81;105094;1257;138795;-67
2024/03/31 04:07:46;;;;;;;35.60;18.90;;;;;;;8.89;78.45;99745.66;105108;1259;75135;-67
2024/03/31 04:10:13;;;;;;;45.90;18.80;;;;;;;8.88;78.58;99737.23;109151;1253;66152;-67
2024/03/31 04:12:40;;;;;;;43.30;18.90;;;;;;;8.87;78.71;99738.27;105676;1257;138758;-67
2024/03/31 04:15:07;;;;;;;36.20;17.80;;;;;;;8.85;78.79;99734.23;105019;1258;61414;-67
2024/03/31 04:17:34;;;;;;;35.10;18.30;;;;;;;8.85;78.81;99730.02;105008;1254;138359;-66
2024/03/31 04:20:01;;;;;;;43.10;18.30;;;;;;;8.84;78.90;99727.04;109296;1253;75679;-67
2024/03/31 04:22:28;;;;;;;44.70;18.80;;;;;;;8.84;78.89;99728.42;109221;1254;138877;-67
2024/03/31 04:24:54;;;;;;;38.90;17.80;;;;;;;8.83;78.77;99725.09;109297;1254;73218;-67
2024/03/31 04:27:21;;;;;;;42.20;17.90;;;;;;;8.77;78.65;99722.55;107043;1255;61226;-66
2024/03/31 04:29:47;;;;;;;37.80;17.80;;;;;;;8.78;78.65;99731.30;105127;1260;138314;-66
2024/03/31 04:32:15;;;;;;;33.30;17.70;;;;;;;8.77;78.76;99729.02;105063;1257;74057;-67
2024/03/31 04:34:42;;;;;;;33.80;18.50;;;;;;;8.76;78.75;99733.20;104924;1259;139639;-66
2024/03/31 04:37:09;;;;;;;41.60;18.20;;;;;;;8.74;78.77;99738.08;109234;1254;73582;-68
2024/03/31 04:39:36;;;;;;;35.20;17.80;;;;;;;8.74;78.76;99742.97;109112;1254;59636;-68
2024/03/31 04:42:03;;;;;;;37.90;18.50;;;;;;;8.77;78.76;99745.11;108540;1254;138320;-68
2024/03/31 04:44:29;;;;;;;33.90;19.20;;;;;;;8.81;78.84;99746.76;104882;1260;315500;-68
2024/03/31 04:46:56;;;;;;;41.20;19.20;;;;;;;8.84;78.78;99743.48;104970;1259;138690;-68
2024/03/31 04:49:22;;;;;;;39.40;20.60;;;;;;;8.88;78.78;99739.70;105088;1260;73179;-68
2024/03/31 04:51:49;;;;;;;37.40;19.50;;;;;;;8.94;78.83;99736.29;105037;1254;61283;-68
2024/03/31 04:54:17;;;;;;;37.70;20.20;;;;;;;9.04;78.95;99729.08;109088;1254;138222;-68
2024/03/31 04:56:45;;;;;;;77.80;35.20;;;;;;;9.17;79.20;99729.10;106800;1254;74666;-68
2024/03/31 04:59:12;;;;;;;68.60;29.90;;;;;;;9.32;79.10;99725.79;104866;1264;138558;-68
2024/03/31 05:01:39;;;;;;;53.70;19.70;;;;;;;9.47;79.05;99721.09;107962;1258;73327;-68
2024/03/31 05:04:06;;;;;;;45.60;19.00;;;;;;;9.64;78.95;99726.73;105148;1255;61409;-67
2024/03/31 05:06:33;;;;;;;41.70;18.60;;;;;;;9.81;78.96;99733.78;105009;1254;138680;-67
2024/03/31 05:09:00;;;;;;;37.60;19.30;;;;;;;9.96;78.64;99734.82;105123;1254;75215;-67
2024/03/31 05:11:28;;;;;;;39.60;18.90;;;;;;;10.08;78.39;99735.83;109064;1254;138576;-68
2024/03/31 05:13:54;;;;;;;33.70;19.30;;;;;;;10.23;78.36;99740.02;109178;1254;72531;-67
2024/03/31 05:16:21;;;;;;;38.80;19.50;;;;;;;10.42;78.17;99736.20;109224;1254;58965;-68
2024/03/31 05:18:51;;;;;;;44.60;18.50;;;;;;;10.58;77.98;99733.19;107367;1258;137778;-67
2024/03/31 05:21:17;;;;;;;43.60;18.30;;;;;;;10.74;77.76;99729.98;108833;1254;73141;-67
2024/03/31 05:23:46;;;;;;;34.40;16.90;;;;;;;10.88;77.51;99729.91;104956;1259;137972;-67
2024/03/31 05:26:13;;;;;;;41.40;17.60;;;;;;;10.98;77.28;99723.31;109146;1254;73752;-67
2024/03/31 05:28:40;;;;;;;31.40;17.00;;;;;;;11.06;77.02;99723.37;108914;1257;138995;-67
2024/03/31 05:31:06;;;;;;;45.20;18.20;;;;;;;11.15;76.84;99722.20;109272;1253;61069;-67
2024/03/31 05:33:34;;;;;;;34.50;17.30;;;;;;;11.20;76.73;99722.58;109397;1254;74845;-67
2024/03/31 05:36:00;;;;;;;39.90;17.50;;;;;;;11.23;76.43;99724.00;107046;1254;139089;-67
2024/03/31 05:38:27;;;;;;;46.10;18.00;;;;;;;11.24;76.25;99724.17;104987;1259;72734;-67
2024/03/31 05:40:54;;;;;;;36.70;16.60;;;;;;;11.20;76.12;99722.75;105115;1257;138777;-67
2024/03/31 05:43:20;;;;;;;44.80;17.30;;;;;;;11.18;76.07;99718.89;105101;1254;61847;-67
2024/03/31 05:45:47;;;;;;;47.80;18.40;;;;;;;11.17;76.03;99717.48;105024;1254;75419;-67
2024/03/31 05:48:14;;;;;;;52.10;18.70;;;;;;;11.21;76.17;99721.71;105155;1258;137818;-67
2024/03/31 05:50:41;;;;;;;51.60;19.90;;;;;;;11.36;76.52;99728.81;105170;1254;73131;-67
2024/03/31 05:53:07;;;;;;;47.40;19.30;;;;;;;11.59;76.68;99732.61;105069;1254;138032;-67
2024/03/31 05:55:34;;;;;;;62.10;22.50;;;;;;;11.82;76.52;99726.21;105225;1254;61446;-67
2024/03/31 05:58:00;;;;;;;58.50;18.70;;;;;;;12.00;76.20;99729.11;105175;1257;73917;-67
2024/03/31 06:00:27;;;;;;;52.90;18.60;;;;;;;12.13;76.18;99724.91;105154;1257;138880;-68
2024/03/31 06:02:54;;;;;;;49.00;16.60;;;;;;;12.27;75.89;99715.10;105128;1257;73266;-68
2024/03/31 06:05:21;;;;;;;59.30;23.70;;;;;;;12.41;75.62;99717.75;105133;1257;139102;-67
2024/03/31 06:07:48;;;;;;;51.70;19.00;;;;;;;12.51;75.42;99716.88;105121;1257;61346;-68
2024/03/31 06:10:16;;;;;;;63.20;17.30;;;;;;;12.63;75.35;99715.84;109228;1254;74882;-67
2024/03/31 06:12:43;;;;;;;65.60;18.40;;;;;;;12.71;75.08;99708.27;108880;1254;137948;-67
2024/03/31 06:15:09;;;;;;;58.20;19.80;;;;;;;12.76;74.75;99710.19;109360;1254;72081;-67
2024/03/31 06:17:36;;;;;;;61.30;20.20;;;;;;;12.81;74.54;99722.34;109227;1254;138395;-66
2024/03/31 06:20:03;;;;;;;56.70;20.30;;;;;;;12.88;74.41;99717.91;109381;1253;59330;-67
2024/03/31 06:22:30;;;;;;;53.90;17.40;;;;;;;12.99;74.17;99718.44;109240;1253;138030;-66
2024/03/31 06:24:56;;;;;;;61.00;16.30;;;;;;;13.11;74.20;99721.41;109355;1254;64237;-67
2024/03/31 06:27:23;;;;;;;53.00;17.50;;;;;;;13.22;74.07;99730.55;109360;1253;72877;-67
2024/03/31 06:29:50;;;;;;;50.00;20.00;;;;;;;13.32;73.79;99737.26;108098;1257;139074;-67
2024/03/31 06:32:17;;;;;;;46.30;18.80;;;;;;;13.35;73.61;99733.38;105229;1257;61331;-67
2024/03/31 06:34:46;;;;;;;48.50;18.40;;;;;;;13.39;73.44;99728.25;105198;1257;138664;-67
2024/03/31 06:37:13;;;;;;;55.90;20.10;;;;;;;13.45;73.07;99727.53;105284;1257;66651;-68
2024/03/31 06:39:40;;;;;;;49.70;22.30;;;;;;;13.48;72.80;99733.34;105305;1257;73365;-68
2024/03/31 06:42:06;;;;;;;64.30;24.50;;;;;;;13.49;72.62;99730.86;105088;1254;138007;-68
2024/03/31 06:44:33;;;;;;;52.70;26.20;;;;;;;13.53;72.59;99732.44;105017;1259;61293;-68
2024/03/31 06:47:00;;;;;;;58.70;26.20;;;;;;;13.55;72.26;99729.42;104991;1254;138477;-68
2024/03/31 06:49:27;;;;;;;59.60;25.40;;;;;;;13.60;72.37;99723.60;105156;1257;66835;-68
2024/03/31 06:51:53;;;;;;;57.10;23.80;;;;;;;13.64;72.24;99719.70;105079;1257;73369;-68
2024/03/31 06:54:20;;;;;;;49.20;21.50;;;;;;;13.68;72.03;99716.69;105126;1254;138501;-68
2024/03/31 06:56:46;;;;;;;54.60;22.30;;;;;;;13.74;71.97;99719.83;105204;1257;61161;-68
2024/03/31 06:59:14;;;;;;;69.50;22.90;;;;;;;13.79;71.79;99720.17;105078;1254;137861;-68
2024/03/31 07:01:41;;;;;;;52.90;22.10;;;;;;;13.83;71.69;99717.67;105432;1256;66600;-68
2024/03/31 07:04:07;;;;;;;69.50;27.70;;;;;;;13.92;71.73;99712.00;104929;1254;72803;-68
2024/03/31 07:06:34;;;;;;;66.30;25.50;;;;;;;14.00;71.57;99709.48;105021;1254;137791;-68
2024/03/31 07:09:01;;;;;;;71.10;27.60;;;;;;;14.12;71.59;99718.58;105032;1254;61112;-68
2024/03/31 07:11:28;;;;;;;72.80;27.60;;;;;;;14.21;71.27;99712.17;104983;1257;138756;-68
2024/03/31 07:13:55;;;;;;;65.20;24.40;;;;;;;14.28;71.12;99711.61;105121;1253;61346;-68
2024/03/31 07:16:21;;;;;;;66.20;25.70;;;;;;;14.34;70.91;99702.56;105080;1257;72676;-68
2024/03/31 07:18:48;;;;;;;68.40;24.50;;;;;;;14.41;71.05;99695.45;104925;1254;137661;-67
2024/03/31 07:21:14;;;;;;;60.70;22.00;;;;;;;14.50;70.88;99700.14;104974;1259;61133;-67
2024/03/31 07:23:43;;;;;;;64.40;23.10;;;;;;;14.61;70.76;99708.56;104955;1254;138294;-66
2024/03/31 07:26:11;;;;;;;56.20;19.80;;;;;;;14.70;70.55;99719.80;109084;1254;66637;-67
2024/03/31 07:28:38;;;;;;;46.60;18.10;;;;;;;14.73;70.28;99721.35;109005;1254;138557;-67
2024/03/31 07:31:04;;;;;;;53.60;19.90;;;;;;;14.76;70.10;99712.85;105604;1254;61171;-67
2024/03/31 07:33:31;;;;;;;65.20;20.50;;;;;;;14.81;70.06;99720.23;105128;1256;61411;-68
2024/03/31 07:36:00;;;;;;;62.90;20.00;;;;;;;14.89;69.94;99714.85;105023;1257;138852;-67
2024/03/31 07:38:27;;;;;;;47.90;18.40;;;;;;;14.99;69.97;99710.88;105106;1258;66034;-67
2024/03/31 07:40:53;;;;;;;53.00;18.10;;;;;;;15.07;69.75;99712.74;105008;1257;138837;-67
2024/03/31 07:43:24;;;;;;;46.90;18.50;;;;;;;15.11;69.64;99716.93;105189;1254;61236;-68
2024/03/31 07:45:50;;;;;;;65.20;18.90;;;;;;;15.19;69.58;99706.08;105121;1254;61663;-66
2024/03/31 07:48:17;;;;;;;52.90;18.10;;;;;;;15.32;69.58;99705.77;104861;1260;137901;-67
2024/03/31 07:50:44;;;;;;;58.50;19.20;;;;;;;15.51;69.59;99698.65;105104;1257;64360;-68
2024/03/31 07:53:11;;;;;;;51.50;16.40;;;;;;;15.72;69.44;99698.05;105031;1254;138755;-68
2024/03/31 07:55:38;;;;;;;43.40;16.30;;;;;;;15.91;69.07;99700.82;109060;1254;59337;-68
2024/03/31 07:58:05;;;;;;;61.80;19.50;;;;;;;16.05;68.61;99694.27;108832;1253;59122;-68
2024/03/31 08:00:32;;;;;;;59.40;17.40;;;;;;;16.20;68.42;99699.17;104908;1254;137925;-68
2024/03/31 08:02:59;;;;;;;49.40;15.70;;;;;;;16.37;68.12;99701.92;105069;1254;65819;-68
2024/03/31 08:05:27;;;;;;;64.30;15.90;;;;;;;16.54;67.92;99696.52;104988;1257;138408;-68
2024/03/31 08:07:54;;;;;;;66.50;18.50;;;;;;;16.68;67.72;99695.58;105178;1254;61232;-68
2024/03/31 08:10:21;;;;;;;67.60;17.30;;;;;;;16.86;67.37;99700.44;105249;1254;61405;-68
2024/03/31 08:12:48;;;;;;;62.40;17.20;;;;;;;16.99;67.09;99690.80;105101;1257;137890;-68
2024/03/31 08:15:14;;;;;;;56.40;15.60;;;;;;;17.19;66.87;99690.64;109260;1253;65877;-69
2024/03/31 08:17:41;;;;;;;51.90;14.60;;;;;;;17.42;66.63;99697.09;106430;1253;137889;-68
2024/03/31 08:20:08;;;;;;;59.80;13.10;;;;;;;17.69;66.32;99693.01;105253;1254;61286;-68
2024/03/31 08:22:35;;;;;;;60.80;13.80;;;;;;;17.96;66.00;99684.45;105031;1257;138114;-68
2024/03/31 08:25:02;;;;;;;64.10;13.10;;;;;;;18.26;65.79;99684.13;105113;1253;75651;-68
2024/03/31 08:27:28;;;;;;;64.00;15.80;;;;;;;18.60;65.42;99684.39;105153;1257;66730;-68
2024/03/31 08:29:55;;;;;;;61.70;13.80;;;;;;;18.91;64.96;99676.32;104893;1259;137844;-68
2024/03/31 08:32:22;;;;;;;56.10;11.80;;;;;;;19.20;64.45;99677.14;105031;1257;59835;-69
2024/03/31 08:34:50;;;;;;;63.40;12.70;;;;;;;19.44;63.90;99678.08;105064;1254;138366;-67
2024/03/31 08:37:17;;;;;;;59.40;13.90;;;;;;;19.66;63.29;99676.74;105154;1257;72998;-68
2024/03/31 08:39:44;;;;;;;53.60;11.60;;;;;;;19.82;62.80;99675.05;105120;1260;65528;-67
2024/03/31 08:42:15;;;;;;;59.60;12.90;;;;;;;19.92;62.42;99673.34;105037;1254;137804;-67
2024/03/31 08:44:42;;;;;;;57.50;12.40;;;;;;;19.99;61.97;99668.46;105160;1257;61489;-68
2024/03/31 08:47:11;;;;;;;65.60;12.50;;;;;;;20.08;61.84;99669.98;107423;1259;139244;-68
2024/03/31 08:49:39;;;;;;;54.20;11.60;;;;;;;20.11;61.34;99666.87;106635;1254;74708;-68
2024/03/31 08:52:07;;;;;;;59.30;12.00;;;;;;;20.12;61.11;99669.66;105139;1257;66919;-68
2024/03/31 08:54:35;;;;;;;56.20;12.50;;;;;;;20.09;60.58;99668.16;105541;1253;137963;-68
2024/03/31 08:57:01;;;;;;;58.60;11.10;;;;;;;20.02;60.49;99664.45;105100;1257;61350;-68
2024/03/31 08:59:28;;;;;;;61.80;13.70;;;;;;;20.00;60.37;99661.47;105057;1257;138160;-67
2024/03/31 09:01:55;;;;;;;65.60;14.20;;;;;;;19.98;60.08;99659.79;105153;1254;60321;-67
2024/03/31 09:04:21;;;;;;;60.40;12.60;;;;;;;19.91;59.94;99652.86;105130;1254;65576;-68
2024/03/31 09:06:48;;;;;;;58.30;12.20;;;;;;;19.85;59.84;99652.69;109056;1253;137809;-68
2024/03/31 09:09:21;;;;;;;57.10;10.90;;;;;;;19.85;59.74;99651.80;109344;1253;58973;-69
2024/03/31 09:11:47;;;;;;;59.00;13.40;;;;;;;19.85;59.69;99648.59;109112;1254;138114;-68
2024/03/31 09:14:14;;;;;;;46.40;12.10;;;;;;;19.85;59.45;99647.71;108887;1252;75568;-68
2024/03/31 09:16:46;;;;;;;57.60;13.80;;;;;;;19.83;59.27;99648.14;105038;1254;139262;-68
2024/03/31 09:19:13;;;;;;;71.60;14.40;;;;;;;19.78;59.13;99648.98;109213;1254;73649;-68
2024/03/31 09:21:46;;;;;;;57.30;12.10;;;;;;;19.76;59.17;99656.38;106505;1254;61423;-66
2024/03/31 09:24:13;;;;;;;56.60;12.50;;;;;;;19.74;59.06;99657.14;109218;1253;138290;-67
2024/03/31 09:26:40;;;;;;;55.90;11.40;;;;;;;19.73;59.17;99661.77;109164;1254;73439;-67
2024/03/31 09:29:08;;;;;;;60.10;10.70;;;;;;;19.68;58.91;99668.16;105571;1259;138233;-67
2024/03/31 09:31:35;;;;;;;66.50;11.80;;;;;;;19.60;58.66;99668.20;104998;1255;73317;-67
2024/03/31 09:34:01;;;;;;;57.60;12.10;;;;;;;19.53;58.76;99663.60;105000;1259;62277;-67
2024/03/31 09:36:28;;;;;;;60.10;13.40;;;;;;;19.48;58.72;99662.65;104996;1254;138405;-68
2024/03/31 09:38:54;;;;;;;83.50;13.40;;;;;;;19.47;58.88;99659.85;105069;1254;75147;-68
2024/03/31 09:41:21;;;;;;;59.80;11.40;;;;;;;19.49;58.87;99659.27;104986;1254;138546;-69
2024/03/31 09:43:48;;;;;;;57.90;11.60;;;;;;;19.52;58.85;99658.63;104995;1254;73580;-67
2024/03/31 09:46:15;;;;;;;56.60;10.90;;;;;;;19.57;58.80;99649.59;104961;1257;62111;-68
2024/03/31 09:48:47;;;;;;;62.30;12.80;;;;;;;19.63;58.74;99653.84;105394;1256;139471;-68
2024/03/31 09:51:19;;;;;;;55.70;11.00;;;;;;;19.70;58.64;99648.69;107644;1253;75391;-68
2024/03/31 09:53:58;;;;;;;52.80;10.50;;;;;;;19.75;58.31;99644.11;104916;1254;138274;-67
2024/03/31 09:56:30;;;;;;;62.80;11.10;;;;;;;19.83;58.22;99638.33;105064;1258;73629;-66
2024/03/31 09:58:56;;;;;;;54.10;11.50;;;;;;;19.94;58.04;99636.38;104926;1258;138551;-67
2024/03/31 10:01:23;;;;;;;61.30;11.30;;;;;;;20.05;57.91;99633.36;105062;1259;62128;-67
2024/03/31 10:03:50;;;;;;;59.50;10.80;;;;;;;20.13;57.79;99635.78;105070;1254;74630;-67
2024/03/31 10:06:17;;;;;;;69.10;17.20;;;;;;;20.27;57.77;99641.23;104960;1254;138236;-67
2024/03/31 10:08:44;;;;;;;57.60;13.10;;;;;;;20.41;57.62;99633.09;104769;1258;73355;-67
2024/03/31 10:11:10;;;;;;;48.70;13.60;;;;;;;20.54;57.31;99634.27;104903;1254;138460;-67
2024/03/31 10:13:37;;;;;;;55.60;12.50;;;;;;;20.69;57.09;99632.20;104802;1261;61984;-67
2024/03/31 10:16:04;;;;;;;61.40;11.30;;;;;;;20.87;56.94;99630.86;104948;1254;75800;-67
2024/03/31 10:18:31;;;;;;;65.30;11.00;;;;;;;21.05;56.65;99628.25;108431;1255;138051;-67
2024/03/31 10:20:58;;;;;;;63.30;13.50;;;;;;;21.21;56.28;99631.27;106352;1253;72871;-68
2024/03/31 10:23:24;;;;;;;63.60;10.90;;;;;;;21.37;55.88;99626.91;104751;1261;138535;-68
2024/03/31 10:25:52;;;;;;;48.20;10.50;;;;;;;21.55;55.79;99626.98;104909;1254;62608;-69
2024/03/31 10:28:19;;;;;;;50.70;10.40;;;;;;;21.71;55.55;99621.70;105251;1257;75492;-66
2024/03/31 10:30:45;;;;;;;59.70;12.60;;;;;;;21.85;55.54;99624.91;105024;1257;137855;-67
2024/03/31 10:33:12;;;;;;;52.10;11.70;;;;;;;21.89;55.13;99626.36;105258;1254;72031;-68
2024/03/31 10:35:39;;;;;;;62.40;11.50;;;;;;;21.91;55.00;99626.81;104934;1255;138598;-68
2024/03/31 10:38:11;;;;;;;42.70;11.70;;;;;;;21.95;54.69;99625.79;105953;1255;61993;-68
2024/03/31 10:40:39;;;;;;;61.50;11.40;;;;;;;21.96;54.39;99626.48;105229;1254;138437;-69
2024/03/31 10:43:07;;;;;;;55.00;11.50;;;;;;;21.88;54.17;99621.94;105010;1258;66438;-68
2024/03/31 10:45:33;;;;;;;59.80;11.40;;;;;;;21.87;54.09;99619.84;105194;1257;73447;-69
2024/03/31 10:48:00;;;;;;;58.70;11.10;;;;;;;21.84;54.17;99621.73;105036;1257;138864;-69
2024/03/31 10:50:27;;;;;;;50.90;11.60;;;;;;;21.86;54.17;99622.94;104965;1259;62134;-68
2024/03/31 10:52:53;;;;;;;55.90;11.70;;;;;;;21.86;53.92;99619.89;105057;1255;138335;-69
2024/03/31 10:55:20;;;;;;;51.50;11.20;;;;;;;21.76;53.60;99616.02;105034;1254;65817;-68
2024/03/31 10:58:00;;;;;;;57.10;11.90;;;;;;;21.61;53.56;99613.91;106218;1254;73287;-68
2024/03/31 11:00:34;;;;;;;61.80;12.20;;;;;;;21.52;53.56;99611.38;105981;1260;138592;-67
2024/03/31 11:03:05;;;;;;;;;;;;;;;21.55;53.71;99608.95;105085;1254;62035;-67
2024/03/31 11:05:32;;;;;;;52.80;9.40;;;;;;;21.61;53.59;99605.85;105818;1254;124295;-68
2024/03/31 11:07:59;;;;;;;42.50;10.20;;;;;;;21.70;53.57;99602.66;105173;1254;66693;-67